createdAt,value
2022-10-20T00:01:00.053Z,6.72
2022-10-20T00:02:18.560Z,7.28
2022-10-20T00:03:20.584Z,7.50
2022-10-20T00:04:23.205Z,6.15
2022-10-20T00:05:24.720Z,6.40
2022-10-20T00:06:29.603Z,7.72
2022-10-20T00:07:31.131Z,6.70
2022-10-20T00:08:33.621Z,6.55
2022-10-20T00:09:35.178Z,6.93
2022-10-20T00:10:44.029Z,6.47
2022-10-20T00:11:46.817Z,7.50
2022-10-20T00:12:49.682Z,6.80
2022-10-20T00:13:54.031Z,6.88
2022-10-20T00:14:55.567Z,6.45
2022-10-20T00:15:59.961Z,6.45
2022-10-20T00:17:01.576Z,6.78
2022-10-20T00:18:04.189Z,6.50
2022-10-20T00:19:06.005Z,6.63
2022-10-20T00:20:09.659Z,6.38
2022-10-20T00:21:14.717Z,6.90
2022-10-20T00:22:17.221Z,6.40
2022-10-20T00:23:18.920Z,7.00
2022-10-20T00:24:21.638Z,6.88
2022-10-20T00:25:23.187Z,5.93
2022-10-20T00:26:27.437Z,6.72
2022-10-20T00:27:28.986Z,8.23
2022-10-20T00:28:32.982Z,6.30
2022-10-20T00:29:34.523Z,7.05
2022-10-20T00:30:37.533Z,7.43
2022-10-20T00:31:39.362Z,7.55
2022-10-20T00:32:41.851Z,7.00
2022-10-20T00:33:43.735Z,8.40
2022-10-20T00:34:46.208Z,7.60
2022-10-20T00:35:47.772Z,8.50
2022-10-20T00:36:51.523Z,7.15
2022-10-20T00:37:53.283Z,7.50
2022-10-20T00:38:59.184Z,8.68
2022-10-20T00:40:00.726Z,7.47
2022-10-20T00:41:03.807Z,8.02
2022-10-20T00:42:05.934Z,7.65
2022-10-20T00:43:11.932Z,7.90
2022-10-20T00:44:49.466Z,8.60
2022-10-20T00:45:54.764Z,7.65
2022-10-20T00:46:58.272Z,6.75
2022-10-20T00:48:05.298Z,7.32
2022-10-20T00:49:13.621Z,7.97
2022-10-20T00:50:17.988Z,6.75
2022-10-20T00:51:23.400Z,7.90
2022-10-20T00:52:25.868Z,7.10
2022-10-20T00:53:29.874Z,6.80
2022-10-20T00:54:32.161Z,7.53
2022-10-20T00:55:38.515Z,7.95
2022-10-20T00:56:44.029Z,6.90
2022-10-20T00:57:50.534Z,7.45
2022-10-20T00:58:52.226Z,7.65
2022-10-20T00:59:56.125Z,6.90
2022-10-20T01:06:01.865Z,7.15
2022-10-20T01:07:04.757Z,6.80
2022-10-20T01:08:07.167Z,7.82
2022-10-20T01:09:09.952Z,6.70
2022-10-20T01:10:12.535Z,7.07
2022-10-20T01:11:20.805Z,6.50
2022-10-20T01:12:34.437Z,7.32
2022-10-20T01:13:42.984Z,6.65
2022-10-20T01:14:53.964Z,7.15
2022-10-20T01:16:04.669Z,8.18
2022-10-20T01:17:17.582Z,7.70
2022-10-20T01:18:28.496Z,6.75
2022-10-20T01:19:53.625Z,7.13
2022-10-20T01:21:13.063Z,7.55
2022-10-20T01:22:35.482Z,7.68
2022-10-20T01:23:58.603Z,7.55
2022-10-20T01:25:14.253Z,7.25
2022-10-20T01:26:39.310Z,7.40
2022-10-20T01:27:43.914Z,7.40
2022-10-20T01:28:52.389Z,7.80
2022-10-20T01:30:01.510Z,7.53
2022-10-20T01:31:13.219Z,6.85
2022-10-20T01:32:20.264Z,7.03
2022-10-20T01:33:31.881Z,7.22
2022-10-20T01:34:39.588Z,7.20
2022-10-20T01:35:52.122Z,6.57
2022-10-20T01:37:00.027Z,6.75
2022-10-20T01:38:12.825Z,7.05
2022-10-20T01:39:17.850Z,6.75
2022-10-20T01:40:27.438Z,6.93
2022-10-20T01:41:34.211Z,7.93
2022-10-20T01:42:40.460Z,7.57
2022-10-20T01:43:46.560Z,6.53
2022-10-20T01:44:50.920Z,7.30
2022-10-20T01:45:54.527Z,7.07
2022-10-20T01:46:59.522Z,7.07
2022-10-20T01:48:05.330Z,6.95
2022-10-20T01:49:08.602Z,7.53
2022-10-20T01:50:12.468Z,7.35
2022-10-20T01:51:15.003Z,8.02
2022-10-20T01:52:17.398Z,7.13
2022-10-20T01:53:20.851Z,7.25
2022-10-20T01:54:23.579Z,6.65
2022-10-20T01:55:26.500Z,7.47
2022-10-20T01:56:38.464Z,6.93
2022-10-20T01:57:50.570Z,9.10
2022-10-20T01:59:26.246Z,7.22
2022-10-20T02:00:27.795Z,7.75
2022-10-20T02:01:45.551Z,7.53
2022-10-20T02:03:02.616Z,7.10
2022-10-20T02:04:08.202Z,6.80
2022-10-20T02:05:31.243Z,8.02
2022-10-20T02:06:43.652Z,7.60
2022-10-20T02:07:45.234Z,6.40
2022-10-20T02:08:50.581Z,6.95
2022-10-20T02:10:00.488Z,6.80
2022-10-20T02:11:06.386Z,6.47
2022-10-20T02:12:13.448Z,6.68
2022-10-20T02:13:17.440Z,8.02
2022-10-20T02:14:22.944Z,7.38
2022-10-20T02:15:28.482Z,7.43
2022-10-20T02:16:35.810Z,6.38
2022-10-20T02:17:40.690Z,6.95
2022-10-20T02:18:44.205Z,6.90
2022-10-20T02:19:51.052Z,7.05
2022-10-20T02:20:55.973Z,8.10
2022-10-20T02:21:59.016Z,7.45
2022-10-20T02:23:02.780Z,7.57
2022-10-20T02:24:08.204Z,6.70
2022-10-20T02:25:11.102Z,6.35
2022-10-20T02:26:15.877Z,7.43
2022-10-20T02:27:22.448Z,7.00
2022-10-20T02:28:25.848Z,7.03
2022-10-20T02:29:33.403Z,6.95
2022-10-20T02:30:37.527Z,6.97
2022-10-20T02:31:42.228Z,7.40
2022-10-20T02:32:49.165Z,7.00
2022-10-20T02:33:52.832Z,7.13
2022-10-20T02:34:55.282Z,6.72
2022-10-20T02:35:59.115Z,7.13
2022-10-20T02:37:02.338Z,7.47
2022-10-20T02:38:04.117Z,7.55
2022-10-20T02:39:07.073Z,6.78
2022-10-20T02:40:09.571Z,7.40
2022-10-20T02:41:12.138Z,6.70
2022-10-20T02:42:13.680Z,6.97
2022-10-20T02:43:16.213Z,7.40
2022-10-20T02:44:18.003Z,6.78
2022-10-20T02:45:22.150Z,6.22
2022-10-20T02:46:24.426Z,6.95
2022-10-20T02:47:26.978Z,7.05
2022-10-20T02:48:28.482Z,6.68
2022-10-20T02:49:30.915Z,6.95
2022-10-20T02:50:33.596Z,6.70
2022-10-20T02:51:36.188Z,7.13
2022-10-20T02:52:38.238Z,7.25
2022-10-20T02:53:40.733Z,6.95
2022-10-20T02:54:42.310Z,7.00
2022-10-20T02:55:45.820Z,7.05
2022-10-20T02:56:47.427Z,7.18
2022-10-20T02:57:50.930Z,7.30
2022-10-20T02:58:52.532Z,7.18
2022-10-20T02:59:55.080Z,7.82
2022-10-20T03:00:57.949Z,7.22
2022-10-20T03:02:00.883Z,6.55
2022-10-20T03:03:03.108Z,6.60
2022-10-20T03:04:06.069Z,7.18
2022-10-20T03:05:08.507Z,6.20
2022-10-20T03:06:13.207Z,7.03
2022-10-20T03:07:14.882Z,7.15
2022-10-20T03:08:18.071Z,6.85
2022-10-20T03:09:19.633Z,7.22
2022-10-20T03:10:22.138Z,6.78
2022-10-20T03:11:25.288Z,7.07
2022-10-20T03:12:30.141Z,6.72
2022-10-20T03:13:33.749Z,6.60
2022-10-20T03:14:36.299Z,7.85
2022-10-20T03:15:38.359Z,7.18
2022-10-20T03:16:42.177Z,6.35
2022-10-20T03:17:49.806Z,7.15
2022-10-20T03:18:52.342Z,6.30
2022-10-20T03:19:53.864Z,6.95
2022-10-20T03:20:56.308Z,7.15
2022-10-20T03:21:57.856Z,6.40
2022-10-20T03:23:00.695Z,7.25
2022-10-20T03:24:02.261Z,6.45
2022-10-20T03:25:05.367Z,7.57
2022-10-20T03:26:10.467Z,6.18
2022-10-20T03:27:12.942Z,6.85
2022-10-20T03:28:14.468Z,6.88
2022-10-20T03:29:17.129Z,5.85
2022-10-20T03:30:19.174Z,7.07
2022-10-20T03:31:21.998Z,5.97
2022-10-20T03:32:24.957Z,8.15
2022-10-20T03:33:27.867Z,7.65
2022-10-20T03:34:29.410Z,6.70
2022-10-20T03:35:32.084Z,6.60
2022-10-20T03:36:34.960Z,7.30
2022-10-20T03:37:36.642Z,6.13
2022-10-20T03:38:41.711Z,6.90
2022-10-20T03:39:43.215Z,6.43
2022-10-20T03:40:45.697Z,6.32
2022-10-20T03:41:47.364Z,7.90
2022-10-20T03:42:49.892Z,7.50
2022-10-20T03:43:51.562Z,6.68
2022-10-20T03:44:54.045Z,5.78
2022-10-20T03:46:02.375Z,7.05
2022-10-20T03:47:05.076Z,6.72
2022-10-20T03:48:08.445Z,6.65
2022-10-20T03:49:10.959Z,6.05
2022-10-20T03:50:16.478Z,6.53
2022-10-20T03:51:19.066Z,5.90
2022-10-20T03:52:20.636Z,6.65
2022-10-20T03:53:23.132Z,6.43
2022-10-20T03:54:24.923Z,7.05
2022-10-20T03:55:27.447Z,5.60
2022-10-20T03:56:29.033Z,7.18
2022-10-20T03:57:31.671Z,6.03
2022-10-20T03:58:33.230Z,6.63
2022-10-20T03:59:35.780Z,6.60
2022-10-20T04:00:37.507Z,7.93
2022-10-20T04:01:40.021Z,6.38
2022-10-20T04:02:43.571Z,7.20
2022-10-20T04:03:47.354Z,6.22
2022-10-20T04:04:49.048Z,7.68
2022-10-20T04:05:51.773Z,6.80
2022-10-20T04:06:53.303Z,7.15
2022-10-20T04:07:55.800Z,6.18
2022-10-20T04:08:57.394Z,6.25
2022-10-20T04:10:02.067Z,6.63
2022-10-20T04:11:04.158Z,6.90
2022-10-20T04:12:06.958Z,6.57
2022-10-20T04:13:09.339Z,6.75
2022-10-20T04:14:12.013Z,6.10
2022-10-20T04:15:13.688Z,6.57
2022-10-20T04:16:16.183Z,7.15
2022-10-20T04:17:17.721Z,7.10
2022-10-20T04:18:20.206Z,6.75
2022-10-20T04:19:23.103Z,5.95
2022-10-20T04:20:25.672Z,5.95
2022-10-20T04:21:27.192Z,6.38
2022-10-20T04:22:30.116Z,6.03
2022-10-20T04:23:31.647Z,6.50
2022-10-20T04:24:34.148Z,6.45
2022-10-20T04:25:35.659Z,6.38
2022-10-20T04:26:38.169Z,6.40
2022-10-20T04:27:40.394Z,6.80
2022-10-20T04:28:43.148Z,6.13
2022-10-20T04:29:44.654Z,7.45
2022-10-20T04:30:47.850Z,7.05
2022-10-20T04:31:49.433Z,6.70
2022-10-20T04:32:51.981Z,6.82
2022-10-20T04:33:53.489Z,7.18
2022-10-20T04:34:58.349Z,7.28
2022-10-20T04:36:00.558Z,7.05
2022-10-20T04:37:06.344Z,6.38
2022-10-20T04:38:08.029Z,6.80
2022-10-20T04:39:10.665Z,6.15
2022-10-20T04:40:13.355Z,6.70
2022-10-20T04:41:14.956Z,6.38
2022-10-20T04:42:17.543Z,6.65
2022-10-20T04:43:19.049Z,6.85
2022-10-20T04:44:21.538Z,6.40
2022-10-20T04:45:23.066Z,6.60
2022-10-20T04:46:26.606Z,6.65
2022-10-20T04:47:31.754Z,6.10
2022-10-20T04:48:34.352Z,6.88
2022-10-20T04:49:37.084Z,6.15
2022-10-20T04:50:39.941Z,6.60
2022-10-20T04:51:42.689Z,6.68
2022-10-20T04:52:44.491Z,6.38
2022-10-20T04:53:47.680Z,7.07
2022-10-20T04:54:49.966Z,6.60
2022-10-20T04:55:55.444Z,5.85
2022-10-20T04:56:57.214Z,5.95
2022-10-20T04:57:59.762Z,6.20
2022-10-20T04:59:01.580Z,6.10
2022-10-20T05:00:05.761Z,5.97
2022-10-20T05:01:10.014Z,6.35
2022-10-20T05:02:12.617Z,5.97
2022-10-20T05:03:14.117Z,6.55
2022-10-20T05:04:20.878Z,6.60
2022-10-20T05:05:22.462Z,6.43
2022-10-20T05:06:28.238Z,6.22
2022-10-20T05:07:30.298Z,6.30
2022-10-20T05:08:32.804Z,6.18
2022-10-20T05:09:34.481Z,6.38
2022-10-20T05:10:39.998Z,6.22
2022-10-20T05:11:43.037Z,5.95
2022-10-20T05:12:44.660Z,6.78
2022-10-20T05:13:47.710Z,6.50
2022-10-20T05:14:50.259Z,6.05
2022-10-20T05:15:52.211Z,6.75
2022-10-20T05:16:54.761Z,8.52
2022-10-20T05:17:56.286Z,6.28
2022-10-20T05:18:58.934Z,6.80
2022-10-20T05:20:00.778Z,6.80
2022-10-20T05:21:09.741Z,6.43
2022-10-20T05:22:14.584Z,6.28
2022-10-20T05:23:16.258Z,6.00
2022-10-20T05:24:21.454Z,6.72
2022-10-20T05:25:36.041Z,6.15
2022-10-20T05:26:39.546Z,6.25
2022-10-20T05:27:41.088Z,6.30
2022-10-20T05:28:45.548Z,6.15
2022-10-20T05:29:47.109Z,6.05
2022-10-20T05:30:49.698Z,6.35
2022-10-20T05:31:51.233Z,6.60
2022-10-20T05:32:53.705Z,6.10
2022-10-20T05:33:56.765Z,5.80
2022-10-20T05:34:59.375Z,5.80
2022-10-20T05:36:06.164Z,6.10
2022-10-20T05:37:08.769Z,6.90
2022-10-20T05:38:11.674Z,6.20
2022-10-20T05:39:14.216Z,6.43
2022-10-20T05:40:15.883Z,6.00
2022-10-20T05:41:21.177Z,6.55
2022-10-20T05:42:23.774Z,6.18
2022-10-20T05:43:25.337Z,6.60
2022-10-20T05:44:27.895Z,6.10
2022-10-20T05:45:29.440Z,6.07
2022-10-20T05:46:33.817Z,7.03
2022-10-20T05:47:35.549Z,6.30
2022-10-20T05:48:42.852Z,6.40
2022-10-20T05:49:44.775Z,6.80
2022-10-20T05:50:47.392Z,6.90
2022-10-20T05:51:49.542Z,7.07
2022-10-20T05:52:52.114Z,7.43
2022-10-20T05:53:57.448Z,6.90
2022-10-20T05:55:00.319Z,5.70
2022-10-20T05:56:05.464Z,7.53
2022-10-20T05:57:07.912Z,6.72
2022-10-20T05:58:09.557Z,7.13
2022-10-20T05:59:12.552Z,7.65
2022-10-20T06:00:15.908Z,7.45
2022-10-20T06:01:23.453Z,7.40
2022-10-20T06:02:25.160Z,7.45
2022-10-20T06:03:28.402Z,7.15
2022-10-20T06:04:31.894Z,6.53
2022-10-20T06:05:33.711Z,6.53
2022-10-20T06:06:37.115Z,6.70
2022-10-20T06:07:38.802Z,7.15
2022-10-20T06:08:41.753Z,7.28
2022-10-20T06:09:45.533Z,6.32
2022-10-20T06:10:49.114Z,6.88
2022-10-20T06:11:52.984Z,6.82
2022-10-20T06:12:54.649Z,6.35
2022-10-20T06:13:57.696Z,6.82
2022-10-20T06:15:01.056Z,5.35
2022-10-20T06:16:04.187Z,7.40
2022-10-20T06:17:06.812Z,7.50
2022-10-20T06:18:08.353Z,6.78
2022-10-20T06:19:11.549Z,6.72
2022-10-20T06:20:13.123Z,6.55
2022-10-20T06:21:17.820Z,6.65
2022-10-20T06:22:20.426Z,6.88
2022-10-20T06:23:21.976Z,6.40
2022-10-20T06:24:24.527Z,6.55
2022-10-20T06:25:27.609Z,6.70
2022-10-20T06:26:32.796Z,6.00
2022-10-20T06:27:35.364Z,6.45
2022-10-20T06:28:38.272Z,7.20
2022-10-20T06:29:40.818Z,6.45
2022-10-20T06:30:42.382Z,8.30
2022-10-20T06:31:47.631Z,6.35
2022-10-20T06:32:53.764Z,6.85
2022-10-20T06:33:57.240Z,6.72
2022-10-20T06:34:59.987Z,6.72
2022-10-20T06:36:02.670Z,6.65
2022-10-20T06:37:05.120Z,7.75
2022-10-20T06:38:06.641Z,7.20
2022-10-20T06:39:12.234Z,6.40
2022-10-20T06:40:13.804Z,6.50
2022-10-20T06:41:18.857Z,6.60
2022-10-20T06:42:20.445Z,6.90
2022-10-20T06:43:23.128Z,7.20
2022-10-20T06:44:25.717Z,6.65
2022-10-20T06:45:27.320Z,7.45
2022-10-20T06:46:32.954Z,7.18
2022-10-20T06:47:35.998Z,6.65
2022-10-20T06:48:37.817Z,7.20
2022-10-20T06:49:40.314Z,6.70
2022-10-20T06:50:41.840Z,6.22
2022-10-20T06:51:44.565Z,6.53
2022-10-20T06:52:46.266Z,6.45
2022-10-20T06:53:49.353Z,6.90
2022-10-20T06:54:52.856Z,7.15
2022-10-20T06:55:58.328Z,6.75
2022-10-20T06:57:02.123Z,6.25
2022-10-20T06:58:03.706Z,6.40
2022-10-20T06:59:06.304Z,6.90
2022-10-20T07:00:09.267Z,7.55
2022-10-20T07:01:14.555Z,6.40
2022-10-20T07:02:16.367Z,7.03
2022-10-20T07:03:18.942Z,6.80
2022-10-20T07:04:21.468Z,6.22
2022-10-20T07:05:23.115Z,7.20
2022-10-20T07:06:29.621Z,6.78
2022-10-20T07:07:31.307Z,6.45
2022-10-20T07:08:36.180Z,6.25
2022-10-20T07:09:39.100Z,8.15
2022-10-20T07:10:41.359Z,6.70
2022-10-20T07:11:46.145Z,7.18
2022-10-20T07:12:48.980Z,6.22
2022-10-20T07:13:52.104Z,7.20
2022-10-20T07:14:53.689Z,6.45
2022-10-20T07:15:56.804Z,6.90
2022-10-20T07:16:59.420Z,6.53
2022-10-20T07:18:01.284Z,7.07
2022-10-20T07:19:05.247Z,6.80
2022-10-20T07:20:07.678Z,6.68
2022-10-20T07:21:14.047Z,7.28
2022-10-20T07:22:15.753Z,6.43
2022-10-20T07:23:18.680Z,7.50
2022-10-20T07:24:21.155Z,6.95
2022-10-20T07:25:22.693Z,6.88
2022-10-20T07:26:27.702Z,7.68
2022-10-20T07:27:30.247Z,8.05
2022-10-20T07:28:35.212Z,7.07
2022-10-20T07:29:38.394Z,7.53
2022-10-20T07:30:40.718Z,6.78
2022-10-20T07:31:44.791Z,7.15
2022-10-20T07:32:46.329Z,7.07
2022-10-20T07:34:06.801Z,5.90
2022-10-20T07:35:12.133Z,7.10
2022-10-20T07:36:15.389Z,6.68
2022-10-20T07:37:17.869Z,6.70
2022-10-20T07:38:19.434Z,7.20
2022-10-20T07:39:22.018Z,6.25
2022-10-20T07:41:31.573Z,7.40
2022-10-20T07:42:33.078Z,8.00
2022-10-20T07:43:37.763Z,7.78
2022-10-20T07:44:50.249Z,7.05
2022-10-20T07:45:51.809Z,7.75
2022-10-20T07:46:54.683Z,7.35
2022-10-20T07:47:57.649Z,6.75
2022-10-20T07:49:22.738Z,7.63
2022-10-20T07:50:23.328Z,7.35
2022-10-20T07:51:28.611Z,7.10
2022-10-20T07:52:31.478Z,7.90
2022-10-20T07:53:34.149Z,7.38
2022-10-20T07:54:36.772Z,8.10
2022-10-20T07:55:39.355Z,7.53
2022-10-20T07:56:44.579Z,8.07
2022-10-20T07:57:47.733Z,7.70
2022-10-20T07:58:50.661Z,7.45
2022-10-20T07:59:53.255Z,9.25
2022-10-20T08:00:54.776Z,8.13
2022-10-20T08:01:59.582Z,7.60
2022-10-20T08:03:02.533Z,7.40
2022-10-20T08:04:04.464Z,7.68
2022-10-20T08:05:07.423Z,7.28
2022-10-20T08:06:09.097Z,7.05
2022-10-20T08:07:11.935Z,7.35
2022-10-20T08:08:13.486Z,8.10
2022-10-20T08:09:15.987Z,7.70
2022-10-20T08:10:18.823Z,7.90
2022-10-20T08:11:20.439Z,8.20
2022-10-20T08:12:22.912Z,7.80
2022-10-20T08:13:24.703Z,7.80
2022-10-20T08:14:31.876Z,7.70
2022-10-20T08:15:35.535Z,8.40
2022-10-20T08:16:39.561Z,7.63
2022-10-20T08:17:42.404Z,7.90
2022-10-20T08:18:52.901Z,7.50
2022-10-20T08:21:15.564Z,7.32
2022-10-20T08:22:19.342Z,8.35
2022-10-20T08:23:23.061Z,7.97
2022-10-20T08:24:24.688Z,8.00
2022-10-20T08:25:28.389Z,8.35
2022-10-20T08:26:31.071Z,8.45
2022-10-20T08:27:33.581Z,8.23
2022-10-20T08:28:35.511Z,8.18
2022-10-20T08:29:40.201Z,8.45
2022-10-20T08:30:42.993Z,7.35
2022-10-20T08:31:44.793Z,8.73
2022-10-20T08:32:51.324Z,7.75
2022-10-20T08:33:53.941Z,8.90
2022-10-20T08:34:57.274Z,8.32
2022-10-20T08:36:02.902Z,7.28
2022-10-20T08:37:05.662Z,7.97
2022-10-20T08:38:08.457Z,8.05
2022-10-20T08:39:10.216Z,8.27
2022-10-20T08:40:17.322Z,8.23
2022-10-20T08:41:23.029Z,8.00
2022-10-20T08:42:26.031Z,9.00
2022-10-20T08:43:29.688Z,7.88
2022-10-20T08:44:34.908Z,9.27
2022-10-20T08:45:41.315Z,8.45
2022-10-20T08:46:43.062Z,8.10
2022-10-20T08:47:48.313Z,8.70
2022-10-20T08:48:52.774Z,8.82
2022-10-20T08:49:54.849Z,7.50
2022-10-20T08:50:57.759Z,7.43
2022-10-20T08:52:01.288Z,9.07
2022-10-20T08:53:04.323Z,7.97
2022-10-20T08:54:13.644Z,8.18
2022-10-20T08:55:24.767Z,8.13
2022-10-20T08:56:30.257Z,8.43
2022-10-20T08:57:36.535Z,7.90
2022-10-20T08:58:43.417Z,8.32
2022-10-20T08:59:45.137Z,8.15
2022-10-20T09:00:55.839Z,8.10
2022-10-20T09:02:01.560Z,8.63
2022-10-20T09:03:14.671Z,7.72
2022-10-20T09:04:19.951Z,8.30
2022-10-20T09:05:27.797Z,8.48
2022-10-20T09:06:29.728Z,9.13
2022-10-20T09:07:36.066Z,9.13
2022-10-20T09:08:40.358Z,9.63
2022-10-20T09:09:42.319Z,8.40
2022-10-20T09:10:49.207Z,9.43
2022-10-20T09:11:52.478Z,9.10
2022-10-20T09:12:55.605Z,7.80
2022-10-20T09:13:58.844Z,8.18
2022-10-20T09:15:01.208Z,8.55
2022-10-20T09:16:08.227Z,7.97
2022-10-20T09:17:16.965Z,10.05
2022-10-20T09:18:19.299Z,7.65
2022-10-20T09:19:24.060Z,9.68
2022-10-20T09:20:30.259Z,7.10
2022-10-20T09:21:34.876Z,9.30
2022-10-20T09:22:36.641Z,8.32
2022-10-20T09:23:42.413Z,8.48
2022-10-20T09:24:46.139Z,8.60
2022-10-20T09:25:51.795Z,6.90
2022-10-20T09:26:58.615Z,7.68
2022-10-20T09:28:01.940Z,8.35
2022-10-20T09:29:12.924Z,8.07
2022-10-20T09:30:20.241Z,9.10
2022-10-20T09:31:32.193Z,8.32
2022-10-20T09:32:50.392Z,8.32
2022-10-20T09:33:53.099Z,8.80
2022-10-20T09:35:19.019Z,7.85
2022-10-20T09:36:22.721Z,8.32
2022-10-20T09:37:25.503Z,8.68
2022-10-20T09:38:30.640Z,8.38
2022-10-20T09:39:43.385Z,8.68
2022-10-20T09:40:59.050Z,8.68
2022-10-20T09:42:04.620Z,8.15
2022-10-20T09:43:11.305Z,8.55
2022-10-20T09:44:23.439Z,7.80
2022-10-20T09:45:29.939Z,7.95
2022-10-20T09:46:40.933Z,8.15
2022-10-20T09:47:45.929Z,8.93
2022-10-20T09:48:50.869Z,7.55
2022-10-20T09:50:00.889Z,8.80
2022-10-20T09:51:06.958Z,8.75
2022-10-20T09:52:20.025Z,7.70
2022-10-20T09:53:25.828Z,8.23
2022-10-20T09:54:30.055Z,7.68
2022-10-20T09:55:34.406Z,7.90
2022-10-20T09:56:39.397Z,8.02
2022-10-20T09:57:48.147Z,8.60
2022-10-20T09:58:50.857Z,8.63
2022-10-20T09:59:55.847Z,8.60
2022-10-20T10:01:01.692Z,9.27
2022-10-20T10:02:30.587Z,7.80
2022-10-20T10:03:40.202Z,8.23
2022-10-20T10:04:43.525Z,8.23
2022-10-20T10:05:46.437Z,7.57
2022-10-20T10:06:49.152Z,9.10
2022-10-20T10:07:58.963Z,7.97
2022-10-20T10:09:02.931Z,8.38
2022-10-20T10:10:08.703Z,8.52
2022-10-20T10:11:16.136Z,9.27
2022-10-20T10:12:20.596Z,8.95
2022-10-20T10:13:25.742Z,8.52
2022-10-20T10:14:29.053Z,8.90
2022-10-20T10:15:34.498Z,9.43
2022-10-20T10:16:42.014Z,8.95
2022-10-20T10:17:46.263Z,8.60
2022-10-20T10:19:00.506Z,9.07
2022-10-20T10:20:06.681Z,9.10
2022-10-20T10:21:11.199Z,9.57
2022-10-20T10:22:14.557Z,8.20
2022-10-20T10:23:22.761Z,9.30
2022-10-20T10:24:37.173Z,7.65
2022-10-20T10:25:39.092Z,11.10
2022-10-20T10:26:46.954Z,8.90
2022-10-20T10:28:00.433Z,9.50
2022-10-20T10:29:03.909Z,8.68
2022-10-20T10:30:28.626Z,7.82
2022-10-20T10:31:33.831Z,8.45
2022-10-20T10:32:46.610Z,8.52
2022-10-20T10:33:50.958Z,8.65
2022-10-20T10:35:08.855Z,9.70
2022-10-20T10:36:29.171Z,9.43
2022-10-20T10:37:34.986Z,9.35
2022-10-20T10:38:37.795Z,8.40
2022-10-20T10:39:41.066Z,8.32
2022-10-20T10:40:53.683Z,9.20
2022-10-20T10:42:09.324Z,9.50
2022-10-20T10:43:29.677Z,8.88
2022-10-20T10:44:46.256Z,8.48
2022-10-20T10:45:53.502Z,8.27
2022-10-20T10:47:08.327Z,8.55
2022-10-20T10:48:27.204Z,9.13
2022-10-20T10:49:53.934Z,8.52
2022-10-20T10:50:59.270Z,7.90
2022-10-20T10:52:15.975Z,8.77
2022-10-20T10:53:33.821Z,8.63
2022-10-20T10:54:50.779Z,8.55
2022-10-20T10:56:00.300Z,9.57
2022-10-20T10:57:12.694Z,8.85
2022-10-20T10:58:26.997Z,9.13
2022-10-20T10:59:34.522Z,8.20
2022-10-20T11:00:45.997Z,9.82
2022-10-20T11:02:01.515Z,9.20
2022-10-20T11:03:17.656Z,8.90
2022-10-20T11:04:49.855Z,8.65
2022-10-20T11:06:09.714Z,9.52
2022-10-20T11:07:24.053Z,9.23
2022-10-20T11:08:50.396Z,9.57
2022-10-20T11:10:06.573Z,10.07
2022-10-20T11:11:25.200Z,9.60
2022-10-20T11:12:46.857Z,9.85
2022-10-20T11:13:55.915Z,9.60
2022-10-20T11:15:15.688Z,9.18
2022-10-20T11:16:38.134Z,8.70
2022-10-20T11:17:50.935Z,8.88
2022-10-20T11:19:17.680Z,9.52
2022-10-20T11:20:31.200Z,9.15
2022-10-20T11:21:40.077Z,10.25
2022-10-20T11:22:53.228Z,9.80
2022-10-20T11:24:21.229Z,9.43
2022-10-20T11:25:31.251Z,10.65
2022-10-20T11:26:36.152Z,10.05
2022-10-20T11:27:40.482Z,9.75
2022-10-20T11:28:46.591Z,10.80
2022-10-20T11:29:52.475Z,11.13
2022-10-20T11:30:55.344Z,10.38
2022-10-20T11:32:09.252Z,10.27
2022-10-20T11:33:15.618Z,9.85
2022-10-20T11:34:28.549Z,10.32
2022-10-20T11:35:41.110Z,10.30
2022-10-20T11:36:46.616Z,11.40
2022-10-20T11:37:55.263Z,11.02
2022-10-20T11:38:58.058Z,11.00
2022-10-20T11:40:14.758Z,11.65
2022-10-20T11:41:23.719Z,12.02
2022-10-20T11:42:33.258Z,10.93
2022-10-20T11:43:40.989Z,11.00
2022-10-20T11:44:47.300Z,10.70
2022-10-20T11:45:54.464Z,13.23
2022-10-20T11:47:01.943Z,10.93
2022-10-20T11:48:14.691Z,12.63
2022-10-20T11:49:17.842Z,11.98
2022-10-20T11:50:19.958Z,11.27
2022-10-20T11:51:54.379Z,12.95
2022-10-20T11:53:20.058Z,12.10
2022-10-20T11:54:41.496Z,11.25
2022-10-20T11:56:10.541Z,12.65
2022-10-20T11:57:25.027Z,12.38
2022-10-20T11:58:47.725Z,12.48
2022-10-20T12:00:11.986Z,12.20
2022-10-20T12:01:31.565Z,11.82
2022-10-20T12:02:59.438Z,13.48
2022-10-20T12:04:25.250Z,14.02
2022-10-20T12:05:49.153Z,12.20
2022-10-20T12:07:33.349Z,11.68
2022-10-20T12:08:49.477Z,12.98
2022-10-20T12:10:18.680Z,12.90
2022-10-20T12:11:29.198Z,13.32
2022-10-20T12:12:37.989Z,12.50
2022-10-20T12:13:52.819Z,12.45
2022-10-20T12:14:59.074Z,13.65
2022-10-20T12:16:01.909Z,13.38
2022-10-20T12:17:27.622Z,12.70
2022-10-20T12:18:32.199Z,13.00
2022-10-20T12:19:35.682Z,14.38
2022-10-20T12:20:53.116Z,14.18
2022-10-20T12:21:58.288Z,13.15
2022-10-20T12:23:02.331Z,12.93
2022-10-20T12:24:32.232Z,14.00
2022-10-20T12:25:38.254Z,13.15
2022-10-20T12:27:10.568Z,13.35
2022-10-20T12:28:43.096Z,12.63
2022-10-20T12:30:00.605Z,13.45
2022-10-20T12:31:04.660Z,13.52
2022-10-20T12:32:36.602Z,13.38
2022-10-20T12:33:43.421Z,13.88
2022-10-20T12:34:45.426Z,14.70
2022-10-20T12:36:14.962Z,13.43
2022-10-20T12:37:19.262Z,14.30
2022-10-20T12:38:24.797Z,11.82
2022-10-20T12:39:30.894Z,14.13
2022-10-20T12:40:40.647Z,13.35
2022-10-20T12:41:55.599Z,13.40
2022-10-20T12:42:57.933Z,13.38
2022-10-20T12:44:05.031Z,13.90
2022-10-20T12:45:23.199Z,11.75
2022-10-20T12:46:31.331Z,14.02
2022-10-20T12:47:36.521Z,13.80
2022-10-20T12:48:47.110Z,14.10
2022-10-20T12:49:56.734Z,13.30
2022-10-20T12:51:06.444Z,12.88
2022-10-20T12:52:20.511Z,12.57
2022-10-20T12:53:26.720Z,12.50
2022-10-20T12:54:36.561Z,13.88
2022-10-20T12:55:41.921Z,12.38
2022-10-20T12:56:45.975Z,12.85
2022-10-20T12:57:48.262Z,11.57
2022-10-20T12:59:20.818Z,13.77
2022-10-20T13:01:00.784Z,13.43
2022-10-20T13:02:39.820Z,12.73
2022-10-20T13:03:46.709Z,11.55
2022-10-20T13:04:53.663Z,12.45
2022-10-20T13:05:56.233Z,12.32
2022-10-20T13:06:57.800Z,12.20
2022-10-20T13:08:04.459Z,13.10
2022-10-20T13:09:22.015Z,12.57
2022-10-20T13:10:34.299Z,11.77
2022-10-20T13:11:53.642Z,12.63
2022-10-20T13:13:35.154Z,12.30
2022-10-20T13:14:50.206Z,12.57
2022-10-20T13:15:54.627Z,11.50
2022-10-20T13:17:11.537Z,11.43
2022-10-20T13:18:20.491Z,12.65
2022-10-20T13:19:30.744Z,12.80
2022-10-20T13:20:44.185Z,11.48
2022-10-20T13:21:49.488Z,11.98
2022-10-20T13:22:55.211Z,11.55
2022-10-20T13:24:13.673Z,11.27
2022-10-20T13:25:35.349Z,11.30
2022-10-20T13:26:45.429Z,13.32
2022-10-20T13:27:50.121Z,12.82
2022-10-20T13:28:53.439Z,12.55
2022-10-20T13:29:56.290Z,11.52
2022-10-20T13:31:09.431Z,13.35
2022-10-20T13:32:19.506Z,12.63
2022-10-20T13:33:38.691Z,12.30
2022-10-20T13:34:58.611Z,13.10
2022-10-20T13:36:07.516Z,13.50
2022-10-20T13:37:30.198Z,12.40
2022-10-20T13:38:41.184Z,11.63
2022-10-20T13:39:54.196Z,11.40
2022-10-20T13:41:04.656Z,13.38
2022-10-20T13:42:19.260Z,11.57
2022-10-20T13:43:36.563Z,11.27
2022-10-20T13:44:48.067Z,11.93
2022-10-20T13:46:11.366Z,12.55
2022-10-20T13:47:35.456Z,11.18
2022-10-20T13:49:16.570Z,11.45
2022-10-20T13:50:23.754Z,11.23
2022-10-20T13:51:28.995Z,12.30
2022-10-20T13:52:34.786Z,12.20
2022-10-20T13:53:41.343Z,12.27
2022-10-20T13:54:47.989Z,11.77
2022-10-20T13:56:00.110Z,11.85
2022-10-20T13:57:02.464Z,12.98
2022-10-20T13:58:08.511Z,11.52
2022-10-20T14:00:33.007Z,12.63
2022-10-20T14:01:36.535Z,11.00
2022-10-20T14:02:39.482Z,10.95
2022-10-20T14:03:44.505Z,11.32
2022-10-20T14:04:47.064Z,12.15
2022-10-20T14:05:50.669Z,12.10
2022-10-20T14:06:53.136Z,11.20
2022-10-20T14:07:55.998Z,11.70
2022-10-20T14:08:59.255Z,11.63
2022-10-20T14:10:01.765Z,12.55
2022-10-20T14:11:08.376Z,11.95
2022-10-20T14:12:16.694Z,11.55
2022-10-20T14:13:21.711Z,11.80
2022-10-20T14:14:25.844Z,11.98
2022-10-20T14:15:31.993Z,11.80
2022-10-20T14:16:33.751Z,11.10
2022-10-20T14:17:40.683Z,11.77
2022-10-20T14:18:43.560Z,12.38
2022-10-20T14:19:46.792Z,11.50
2022-10-20T14:20:56.530Z,11.77
2022-10-20T14:22:10.670Z,11.20
2022-10-20T14:23:12.939Z,11.10
2022-10-20T14:24:29.631Z,12.35
2022-10-20T14:25:33.529Z,10.85
2022-10-20T14:26:37.683Z,11.48
2022-10-20T14:27:40.818Z,10.98
2022-10-20T14:28:44.230Z,11.93
2022-10-20T14:29:47.854Z,11.80
2022-10-20T14:30:51.742Z,11.07
2022-10-20T14:31:53.606Z,11.73
2022-10-20T14:32:56.385Z,11.68
2022-10-20T14:33:58.194Z,11.20
2022-10-20T14:35:03.663Z,10.55
2022-10-20T14:36:06.263Z,11.40
2022-10-20T14:37:30.529Z,12.30
2022-10-20T14:38:37.766Z,11.98
2022-10-20T14:39:40.770Z,11.65
2022-10-20T14:40:50.599Z,11.90
2022-10-20T14:41:55.530Z,10.35
2022-10-20T14:43:01.209Z,12.00
2022-10-20T14:44:08.931Z,11.52
2022-10-20T14:45:22.204Z,11.23
2022-10-20T14:46:29.522Z,11.25
2022-10-20T14:47:39.584Z,11.25
2022-10-20T14:48:46.183Z,10.93